sensor_id;sensor_type;location;lat;lon;timestamp;temperature;humidity
74384;DHT22;62824;52.994;-3.936;2023-02-26T00:02:17;3.30;99.90
74384;DHT22;62824;52.994;-3.936;2023-02-26T00:04:43;3.30;99.90
74384;DHT22;62824;52.994;-3.936;2023-02-26T00:07:09;3.30;99.90
74384;DHT22;62824;52.994;-3.936;2023-02-26T00:09:34;3.30;99.90
74384;DHT22;62824;52.994;-3.936;2023-02-26T00:12:00;3.30;99.90
74384;DHT22;62824;52.994;-3.936;2023-02-26T00:14:27;3.30;99.90
74384;DHT22;62824;52.994;-3.936;2023-02-26T00:19:32;3.30;99.90
74384;DHT22;62824;52.994;-3.936;2023-02-26T00:21:58;3.30;99.90
74384;DHT22;62824;52.994;-3.936;2023-02-26T00:24:24;3.30;99.90
74384;DHT22;62824;52.994;-3.936;2023-02-26T00:26:50;3.20;99.90
74384;DHT22;62824;52.994;-3.936;2023-02-26T00:29:16;3.20;99.90
74384;DHT22;62824;52.994;-3.936;2023-02-26T00:31:41;3.20;99.90
74384;DHT22;62824;52.994;-3.936;2023-02-26T00:34:11;3.20;99.90
74384;DHT22;62824;52.994;-3.936;2023-02-26T00:36:45;3.20;99.90
74384;DHT22;62824;52.994;-3.936;2023-02-26T00:41:49;3.10;99.90
74384;DHT22;62824;52.994;-3.936;2023-02-26T00:44:15;3.20;99.90
74384;DHT22;62824;52.994;-3.936;2023-02-26T00:52:28;3.10;99.90
74384;DHT22;62824;52.994;-3.936;2023-02-26T00:54:55;3.10;99.90
74384;DHT22;62824;52.994;-3.936;2023-02-26T00:57:20;3.10;99.90
74384;DHT22;62824;52.994;-3.936;2023-02-26T00:59:46;3.10;99.90
74384;DHT22;62824;52.994;-3.936;2023-02-26T01:02:12;3.10;99.90
74384;DHT22;62824;52.994;-3.936;2023-02-26T01:04:38;3.10;99.90
74384;DHT22;62824;52.994;-3.936;2023-02-26T01:07:04;3.10;99.90
74384;DHT22;62824;52.994;-3.936;2023-02-26T01:11:59;3.10;99.90
74384;DHT22;62824;52.994;-3.936;2023-02-26T01:14:27;3.20;99.90
74384;DHT22;62824;52.994;-3.936;2023-02-26T01:16:56;3.20;99.90
74384;DHT22;62824;52.994;-3.936;2023-02-26T01:19:32;3.20;99.90
74384;DHT22;62824;52.994;-3.936;2023-02-26T01:22:14;3.10;99.90
74384;DHT22;62824;52.994;-3.936;2023-02-26T01:24:42;3.10;99.90
74384;DHT22;62824;52.994;-3.936;2023-02-26T01:27:08;3.10;99.90
74384;DHT22;62824;52.994;-3.936;2023-02-26T01:29:33;3.10;99.90
74384;DHT22;62824;52.994;-3.936;2023-02-26T01:38:09;3.00;99.90
74384;DHT22;62824;52.994;-3.936;2023-02-26T01:44:22;3.10;99.90
74384;DHT22;62824;52.994;-3.936;2023-02-26T01:49:22;3.10;99.90
74384;DHT22;62824;52.994;-3.936;2023-02-26T01:54:53;3.10;99.90
74384;DHT22;62824;52.994;-3.936;2023-02-26T01:57:20;3.10;99.90
74384;DHT22;62824;52.994;-3.936;2023-02-26T01:59:48;3.10;99.90
74384;DHT22;62824;52.994;-3.936;2023-02-26T02:02:22;3.10;99.90
74384;DHT22;62824;52.994;-3.936;2023-02-26T02:04:49;3.10;99.90
74384;DHT22;62824;52.994;-3.936;2023-02-26T02:07:16;3.10;99.90
74384;DHT22;62824;52.994;-3.936;2023-02-26T02:09:43;3.10;99.90
74384;DHT22;62824;52.994;-3.936;2023-02-26T02:12:45;3.10;99.90
74384;DHT22;62824;52.994;-3.936;2023-02-26T02:15:20;3.00;99.90
74384;DHT22;62824;52.994;-3.936;2023-02-26T02:18:17;3.00;99.90
74384;DHT22;62824;52.994;-3.936;2023-02-26T02:37:20;3.00;99.90
74384;DHT22;62824;52.994;-3.936;2023-02-26T02:42:57;3.00;99.90
74384;DHT22;62824;52.994;-3.936;2023-02-26T02:45:37;2.90;99.90
74384;DHT22;62824;52.994;-3.936;2023-02-26T02:48:13;2.90;99.90
74384;DHT22;62824;52.994;-3.936;2023-02-26T02:50:47;2.80;99.90
74384;DHT22;62824;52.994;-3.936;2023-02-26T02:53:26;2.80;99.90
74384;DHT22;62824;52.994;-3.936;2023-02-26T02:56:03;2.80;99.90
74384;DHT22;62824;52.994;-3.936;2023-02-26T02:58:35;2.80;99.90
74384;DHT22;62824;52.994;-3.936;2023-02-26T03:01:05;2.80;99.90
74384;DHT22;62824;52.994;-3.936;2023-02-26T03:06:14;2.80;99.90
74384;DHT22;62824;52.994;-3.936;2023-02-26T03:08:42;2.80;99.90
74384;DHT22;62824;52.994;-3.936;2023-02-26T03:11:09;2.80;99.90
74384;DHT22;62824;52.994;-3.936;2023-02-26T03:13:36;2.80;99.90
74384;DHT22;62824;52.994;-3.936;2023-02-26T03:16:08;2.80;99.90
74384;DHT22;62824;52.994;-3.936;2023-02-26T03:18:55;2.80;99.90
74384;DHT22;62824;52.994;-3.936;2023-02-26T03:24:37;2.80;99.90
74384;DHT22;62824;52.994;-3.936;2023-02-26T03:27:20;2.80;99.90
74384;DHT22;62824;52.994;-3.936;2023-02-26T03:30:05;2.80;99.90
74384;DHT22;62824;52.994;-3.936;2023-02-26T03:32:44;2.80;99.90
74384;DHT22;62824;52.994;-3.936;2023-02-26T03:35:16;2.80;99.90
74384;DHT22;62824;52.994;-3.936;2023-02-26T03:37:51;2.80;99.90
74384;DHT22;62824;52.994;-3.936;2023-02-26T03:40:28;2.80;99.90
74384;DHT22;62824;52.994;-3.936;2023-02-26T03:43:06;2.80;99.90
74384;DHT22;62824;52.994;-3.936;2023-02-26T03:45:34;2.80;99.90
74384;DHT22;62824;52.994;-3.936;2023-02-26T03:48:04;2.70;99.90
74384;DHT22;62824;52.994;-3.936;2023-02-26T03:50:49;2.80;99.90
74384;DHT22;62824;52.994;-3.936;2023-02-26T03:53:22;2.80;99.90
74384;DHT22;62824;52.994;-3.936;2023-02-26T03:56:17;2.80;99.90
74384;DHT22;62824;52.994;-3.936;2023-02-26T03:58:44;2.90;99.90
74384;DHT22;62824;52.994;-3.936;2023-02-26T04:01:23;2.90;99.90
74384;DHT22;62824;52.994;-3.936;2023-02-26T04:03:52;2.90;99.90
74384;DHT22;62824;52.994;-3.936;2023-02-26T04:06:20;2.90;99.90
74384;DHT22;62824;52.994;-3.936;2023-02-26T04:08:46;2.90;99.90
74384;DHT22;62824;52.994;-3.936;2023-02-26T04:11:18;2.90;99.90
74384;DHT22;62824;52.994;-3.936;2023-02-26T04:13:45;2.80;99.90
74384;DHT22;62824;52.994;-3.936;2023-02-26T04:16:12;2.80;99.90
74384;DHT22;62824;52.994;-3.936;2023-02-26T04:18:38;2.80;99.90
74384;DHT22;62824;52.994;-3.936;2023-02-26T04:21:05;2.80;99.90
74384;DHT22;62824;52.994;-3.936;2023-02-26T04:23:31;2.80;99.90
74384;DHT22;62824;52.994;-3.936;2023-02-26T04:25:57;2.80;99.90
74384;DHT22;62824;52.994;-3.936;2023-02-26T04:28:23;2.70;99.90
74384;DHT22;62824;52.994;-3.936;2023-02-26T04:30:48;2.70;99.90
74384;DHT22;62824;52.994;-3.936;2023-02-26T04:33:14;2.70;99.90
74384;DHT22;62824;52.994;-3.936;2023-02-26T04:35:41;2.70;99.90
74384;DHT22;62824;52.994;-3.936;2023-02-26T04:38:07;2.70;99.90
74384;DHT22;62824;52.994;-3.936;2023-02-26T04:40:32;2.70;99.90
74384;DHT22;62824;52.994;-3.936;2023-02-26T04:42:58;2.60;99.90
74384;DHT22;62824;52.994;-3.936;2023-02-26T04:45:24;2.60;99.90
74384;DHT22;62824;52.994;-3.936;2023-02-26T04:47:50;2.60;99.90
74384;DHT22;62824;52.994;-3.936;2023-02-26T04:50:16;2.70;99.90
74384;DHT22;62824;52.994;-3.936;2023-02-26T04:52:41;2.60;99.90
74384;DHT22;62824;52.994;-3.936;2023-02-26T04:55:07;2.70;99.90
74384;DHT22;62824;52.994;-3.936;2023-02-26T04:57:33;2.70;99.90
74384;DHT22;62824;52.994;-3.936;2023-02-26T04:59:59;2.70;99.90
74384;DHT22;62824;52.994;-3.936;2023-02-26T05:02:25;2.70;99.90
74384;DHT22;62824;52.994;-3.936;2023-02-26T05:04:50;2.70;99.90
74384;DHT22;62824;52.994;-3.936;2023-02-26T05:07:16;2.70;99.90
74384;DHT22;62824;52.994;-3.936;2023-02-26T05:09:42;2.70;99.90
74384;DHT22;62824;52.994;-3.936;2023-02-26T05:12:08;2.70;99.90
74384;DHT22;62824;52.994;-3.936;2023-02-26T05:14:33;2.70;99.90
74384;DHT22;62824;52.994;-3.936;2023-02-26T05:16:59;2.70;99.90
74384;DHT22;62824;52.994;-3.936;2023-02-26T05:19:25;2.70;99.90
74384;DHT22;62824;52.994;-3.936;2023-02-26T05:21:51;2.70;99.90
74384;DHT22;62824;52.994;-3.936;2023-02-26T05:24:16;2.70;99.90
74384;DHT22;62824;52.994;-3.936;2023-02-26T05:26:42;2.70;99.90
74384;DHT22;62824;52.994;-3.936;2023-02-26T05:29:08;2.70;99.90
74384;DHT22;62824;52.994;-3.936;2023-02-26T05:31:34;2.70;99.90
74384;DHT22;62824;52.994;-3.936;2023-02-26T05:34:00;2.70;99.90
74384;DHT22;62824;52.994;-3.936;2023-02-26T05:36:25;2.70;99.90
74384;DHT22;62824;52.994;-3.936;2023-02-26T05:38:51;2.60;99.90
74384;DHT22;62824;52.994;-3.936;2023-02-26T05:41:18;2.60;99.90
74384;DHT22;62824;52.994;-3.936;2023-02-26T05:43:44;2.60;99.90
74384;DHT22;62824;52.994;-3.936;2023-02-26T05:46:09;2.60;99.90
74384;DHT22;62824;52.994;-3.936;2023-02-26T05:48:35;2.70;99.90
74384;DHT22;62824;52.994;-3.936;2023-02-26T05:51:01;2.70;99.90
74384;DHT22;62824;52.994;-3.936;2023-02-26T05:53:27;2.70;99.90
74384;DHT22;62824;52.994;-3.936;2023-02-26T05:55:54;2.70;99.90
74384;DHT22;62824;52.994;-3.936;2023-02-26T05:58:21;2.70;99.90
74384;DHT22;62824;52.994;-3.936;2023-02-26T06:00:47;2.70;99.90
74384;DHT22;62824;52.994;-3.936;2023-02-26T06:03:13;2.70;99.90
74384;DHT22;62824;52.994;-3.936;2023-02-26T06:05:39;2.70;99.90
74384;DHT22;62824;52.994;-3.936;2023-02-26T06:08:04;2.70;99.90
74384;DHT22;62824;52.994;-3.936;2023-02-26T06:10:31;2.70;99.90
74384;DHT22;62824;52.994;-3.936;2023-02-26T06:12:57;2.70;99.90
74384;DHT22;62824;52.994;-3.936;2023-02-26T06:15:23;2.70;99.90
74384;DHT22;62824;52.994;-3.936;2023-02-26T06:17:49;2.70;99.90
74384;DHT22;62824;52.994;-3.936;2023-02-26T06:20:14;2.70;99.90
74384;DHT22;62824;52.994;-3.936;2023-02-26T06:22:40;2.70;99.90
74384;DHT22;62824;52.994;-3.936;2023-02-26T06:25:06;2.60;99.90
74384;DHT22;62824;52.994;-3.936;2023-02-26T06:27:32;2.70;99.90
74384;DHT22;62824;52.994;-3.936;2023-02-26T06:29:58;2.70;99.90
74384;DHT22;62824;52.994;-3.936;2023-02-26T06:32:23;2.70;99.90
74384;DHT22;62824;52.994;-3.936;2023-02-26T06:34:49;2.70;99.90
74384;DHT22;62824;52.994;-3.936;2023-02-26T06:37:15;2.80;99.90
74384;DHT22;62824;52.994;-3.936;2023-02-26T06:39:41;2.80;99.90
74384;DHT22;62824;52.994;-3.936;2023-02-26T06:42:06;2.80;99.90
74384;DHT22;62824;52.994;-3.936;2023-02-26T06:44:32;2.90;99.90
74384;DHT22;62824;52.994;-3.936;2023-02-26T06:46:58;2.90;99.90
74384;DHT22;62824;52.994;-3.936;2023-02-26T06:49:24;2.90;99.90
74384;DHT22;62824;52.994;-3.936;2023-02-26T06:51:50;2.90;99.90
74384;DHT22;62824;52.994;-3.936;2023-02-26T06:54:16;3.00;99.90
74384;DHT22;62824;52.994;-3.936;2023-02-26T06:56:41;3.00;99.90
74384;DHT22;62824;52.994;-3.936;2023-02-26T06:59:07;3.00;99.90
74384;DHT22;62824;52.994;-3.936;2023-02-26T07:01:33;3.00;99.90
74384;DHT22;62824;52.994;-3.936;2023-02-26T07:03:58;3.00;99.90
74384;DHT22;62824;52.994;-3.936;2023-02-26T07:06:24;2.90;99.90
74384;DHT22;62824;52.994;-3.936;2023-02-26T07:08:50;2.90;99.90
74384;DHT22;62824;52.994;-3.936;2023-02-26T07:11:16;2.90;99.90
74384;DHT22;62824;52.994;-3.936;2023-02-26T07:13:42;2.90;99.90
74384;DHT22;62824;52.994;-3.936;2023-02-26T07:16:08;2.90;99.90
74384;DHT22;62824;52.994;-3.936;2023-02-26T07:18:34;2.90;99.90
74384;DHT22;62824;52.994;-3.936;2023-02-26T07:21:00;2.90;99.90
74384;DHT22;62824;52.994;-3.936;2023-02-26T07:23:26;2.90;99.90
74384;DHT22;62824;52.994;-3.936;2023-02-26T07:25:52;2.90;99.90
74384;DHT22;62824;52.994;-3.936;2023-02-26T07:28:17;3.00;99.90
74384;DHT22;62824;52.994;-3.936;2023-02-26T07:30:45;2.90;99.90
74384;DHT22;62824;52.994;-3.936;2023-02-26T07:33:10;3.00;99.90
74384;DHT22;62824;52.994;-3.936;2023-02-26T07:35:37;3.00;99.90
74384;DHT22;62824;52.994;-3.936;2023-02-26T07:38:03;3.00;99.90
74384;DHT22;62824;52.994;-3.936;2023-02-26T07:40:29;3.00;99.90
74384;DHT22;62824;52.994;-3.936;2023-02-26T07:42:55;3.00;99.90
74384;DHT22;62824;52.994;-3.936;2023-02-26T07:45:21;3.00;99.90
74384;DHT22;62824;52.994;-3.936;2023-02-26T07:47:56;3.00;99.90
74384;DHT22;62824;52.994;-3.936;2023-02-26T07:50:22;3.00;99.90
74384;DHT22;62824;52.994;-3.936;2023-02-26T07:52:51;3.00;99.90
74384;DHT22;62824;52.994;-3.936;2023-02-26T07:55:18;3.00;99.90
74384;DHT22;62824;52.994;-3.936;2023-02-26T07:57:44;3.00;99.90
74384;DHT22;62824;52.994;-3.936;2023-02-26T08:00:11;2.90;99.90
74384;DHT22;62824;52.994;-3.936;2023-02-26T08:02:37;3.00;99.90
74384;DHT22;62824;52.994;-3.936;2023-02-26T08:05:03;3.00;99.90
74384;DHT22;62824;52.994;-3.936;2023-02-26T08:07:29;3.00;99.90
74384;DHT22;62824;52.994;-3.936;2023-02-26T08:09:55;3.00;99.90
74384;DHT22;62824;52.994;-3.936;2023-02-26T08:12:20;3.00;99.90
74384;DHT22;62824;52.994;-3.936;2023-02-26T08:14:46;3.10;99.90
74384;DHT22;62824;52.994;-3.936;2023-02-26T08:17:13;3.10;99.90
74384;DHT22;62824;52.994;-3.936;2023-02-26T08:19:38;3.10;99.90
74384;DHT22;62824;52.994;-3.936;2023-02-26T08:22:04;3.10;99.90
74384;DHT22;62824;52.994;-3.936;2023-02-26T08:24:30;3.10;99.90
74384;DHT22;62824;52.994;-3.936;2023-02-26T08:26:56;3.20;99.90
74384;DHT22;62824;52.994;-3.936;2023-02-26T08:29:22;3.20;99.90
74384;DHT22;62824;52.994;-3.936;2023-02-26T08:31:48;3.30;99.90
74384;DHT22;62824;52.994;-3.936;2023-02-26T08:34:14;3.40;99.90
74384;DHT22;62824;52.994;-3.936;2023-02-26T08:36:40;3.60;99.90
74384;DHT22;62824;52.994;-3.936;2023-02-26T08:39:05;4.10;99.90
74384;DHT22;62824;52.994;-3.936;2023-02-26T08:41:31;4.70;99.90
74384;DHT22;62824;52.994;-3.936;2023-02-26T08:44:01;5.20;99.90
74384;DHT22;62824;52.994;-3.936;2023-02-26T08:46:27;5.70;97.40
74384;DHT22;62824;52.994;-3.936;2023-02-26T08:48:52;6.00;95.40
74384;DHT22;62824;52.994;-3.936;2023-02-26T08:51:22;5.90;94.90
74384;DHT22;62824;52.994;-3.936;2023-02-26T08:53:48;6.30;94.30
74384;DHT22;62824;52.994;-3.936;2023-02-26T08:56:15;6.10;93.50
74384;DHT22;62824;52.994;-3.936;2023-02-26T08:58:41;6.40;92.80
74384;DHT22;62824;52.994;-3.936;2023-02-26T09:01:07;6.70;91.60
74384;DHT22;62824;52.994;-3.936;2023-02-26T09:03:32;6.80;89.90
74384;DHT22;62824;52.994;-3.936;2023-02-26T09:05:58;6.80;88.80
74384;DHT22;62824;52.994;-3.936;2023-02-26T09:08:24;7.00;88.40
74384;DHT22;62824;52.994;-3.936;2023-02-26T09:10:50;7.30;84.30
74384;DHT22;62824;52.994;-3.936;2023-02-26T09:13:16;7.60;79.50
74384;DHT22;62824;52.994;-3.936;2023-02-26T09:15:41;7.70;79.00
74384;DHT22;62824;52.994;-3.936;2023-02-26T09:18:07;7.80;77.20
74384;DHT22;62824;52.994;-3.936;2023-02-26T09:20:43;8.40;71.60
74384;DHT22;62824;52.994;-3.936;2023-02-26T09:23:09;8.50;69.20
74384;DHT22;62824;52.994;-3.936;2023-02-26T09:25:35;9.00;66.10
74384;DHT22;62824;52.994;-3.936;2023-02-26T09:28:01;9.10;62.30
74384;DHT22;62824;52.994;-3.936;2023-02-26T09:30:27;9.40;61.60
74384;DHT22;62824;52.994;-3.936;2023-02-26T09:32:52;9.30;58.00
74384;DHT22;62824;52.994;-3.936;2023-02-26T09:35:18;9.90;59.20
74384;DHT22;62824;52.994;-3.936;2023-02-26T09:37:44;9.90;54.80
74384;DHT22;62824;52.994;-3.936;2023-02-26T09:45:36;10.90;46.10
74384;DHT22;62824;52.994;-3.936;2023-02-26T09:48:05;11.00;45.80
74384;DHT22;62824;52.994;-3.936;2023-02-26T09:50:44;10.70;45.60
74384;DHT22;62824;52.994;-3.936;2023-02-26T09:53:13;10.30;48.50
74384;DHT22;62824;52.994;-3.936;2023-02-26T09:55:46;10.30;48.90
74384;DHT22;62824;52.994;-3.936;2023-02-26T10:00:53;8.80;59.10
74384;DHT22;62824;52.994;-3.936;2023-02-26T10:03:36;9.50;57.30
74384;DHT22;62824;52.994;-3.936;2023-02-26T10:06:24;10.50;54.30
74384;DHT22;62824;52.994;-3.936;2023-02-26T10:14:36;12.00;42.90
74384;DHT22;62824;52.994;-3.936;2023-02-26T10:20:09;12.90;40.30
74384;DHT22;62824;52.994;-3.936;2023-02-26T10:22:54;12.20;38.70
74384;DHT22;62824;52.994;-3.936;2023-02-26T10:25:36;12.40;40.40
74384;DHT22;62824;52.994;-3.936;2023-02-26T10:30:36;13.50;38.70
74384;DHT22;62824;52.994;-3.936;2023-02-26T10:35:59;13.80;35.70
74384;DHT22;62824;52.994;-3.936;2023-02-26T10:38:28;14.50;33.60
74384;DHT22;62824;52.994;-3.936;2023-02-26T10:41:08;13.40;34.80
74384;DHT22;62824;52.994;-3.936;2023-02-26T10:46:12;15.00;32.40
74384;DHT22;62824;52.994;-3.936;2023-02-26T10:51:37;14.20;31.20
74384;DHT22;62824;52.994;-3.936;2023-02-26T10:54:26;12.30;37.20
74384;DHT22;62824;52.994;-3.936;2023-02-26T10:56:54;11.80;38.40
74384;DHT22;62824;52.994;-3.936;2023-02-26T10:59:20;13.10;36.10
74384;DHT22;62824;52.994;-3.936;2023-02-26T11:01:46;12.80;36.40
74384;DHT22;62824;52.994;-3.936;2023-02-26T11:04:17;13.90;33.70
74384;DHT22;62824;52.994;-3.936;2023-02-26T11:06:48;13.00;33.40
74384;DHT22;62824;52.994;-3.936;2023-02-26T11:09:25;12.50;35.40
74384;DHT22;62824;52.994;-3.936;2023-02-26T11:12:03;12.30;37.10
74384;DHT22;62824;52.994;-3.936;2023-02-26T11:14:31;12.90;35.60
74384;DHT22;62824;52.994;-3.936;2023-02-26T11:17:01;13.20;36.10
74384;DHT22;62824;52.994;-3.936;2023-02-26T11:19:35;13.30;35.00
74384;DHT22;62824;52.994;-3.936;2023-02-26T11:22:02;14.10;33.90
74384;DHT22;62824;52.994;-3.936;2023-02-26T11:27:01;15.80;28.80
74384;DHT22;62824;52.994;-3.936;2023-02-26T11:29:36;14.00;29.80
74384;DHT22;62824;52.994;-3.936;2023-02-26T11:32:03;14.10;30.20
74384;DHT22;62824;52.994;-3.936;2023-02-26T11:34:30;13.60;29.70
74384;DHT22;62824;52.994;-3.936;2023-02-26T11:36:58;13.00;30.90
74384;DHT22;62824;52.994;-3.936;2023-02-26T11:39:31;11.80;32.90
74384;DHT22;62824;52.994;-3.936;2023-02-26T11:41:59;11.30;35.80
74384;DHT22;62824;52.994;-3.936;2023-02-26T11:44:45;11.50;36.60
74384;DHT22;62824;52.994;-3.936;2023-02-26T11:47:18;10.80;36.50
74384;DHT22;62824;52.994;-3.936;2023-02-26T11:49:54;11.20;38.10
74384;DHT22;62824;52.994;-3.936;2023-02-26T11:52:32;10.80;39.00
74384;DHT22;62824;52.994;-3.936;2023-02-26T11:55:43;11.30;37.90
74384;DHT22;62824;52.994;-3.936;2023-02-26T11:57:53;11.20;38.60
74384;DHT22;62824;52.994;-3.936;2023-02-26T12:00:31;10.70;39.80
74384;DHT22;62824;52.994;-3.936;2023-02-26T12:03:06;10.40;38.60
74384;DHT22;62824;52.994;-3.936;2023-02-26T12:05:35;10.00;39.90
74384;DHT22;62824;52.994;-3.936;2023-02-26T12:08:03;10.30;40.10
74384;DHT22;62824;52.994;-3.936;2023-02-26T12:16:33;11.30;33.40
74384;DHT22;62824;52.994;-3.936;2023-02-26T12:33:04;9.60;39.30
74384;DHT22;62824;52.994;-3.936;2023-02-26T12:46:32;10.90;33.50
74384;DHT22;62824;52.994;-3.936;2023-02-26T12:49:32;10.20;35.10
74384;DHT22;62824;52.994;-3.936;2023-02-26T13:14:06;8.80;47.70
74384;DHT22;62824;52.994;-3.936;2023-02-26T13:19:48;8.70;46.20
74384;DHT22;62824;52.994;-3.936;2023-02-26T13:23:40;8.80;47.10
74384;DHT22;62824;52.994;-3.936;2023-02-26T13:25:40;8.80;45.80
74384;DHT22;62824;52.994;-3.936;2023-02-26T13:28:32;8.80;44.70
74384;DHT22;62824;52.994;-3.936;2023-02-26T13:31:00;9.10;45.70
74384;DHT22;62824;52.994;-3.936;2023-02-26T13:33:32;9.10;44.10
74384;DHT22;62824;52.994;-3.936;2023-02-26T13:36:00;9.20;43.90
74384;DHT22;62824;52.994;-3.936;2023-02-26T13:46:57;9.10;47.10
74384;DHT22;62824;52.994;-3.936;2023-02-26T13:49:39;9.10;45.80
74384;DHT22;62824;52.994;-3.936;2023-02-26T13:52:28;8.60;48.10
74384;DHT22;62824;52.994;-3.936;2023-02-26T13:54:55;8.50;49.10
74384;DHT22;62824;52.994;-3.936;2023-02-26T13:57:35;8.60;48.70
74384;DHT22;62824;52.994;-3.936;2023-02-26T14:00:27;8.50;47.10
74384;DHT22;62824;52.994;-3.936;2023-02-26T14:03:09;8.60;48.10
74384;DHT22;62824;52.994;-3.936;2023-02-26T14:08:23;9.20;47.20
74384;DHT22;62824;52.994;-3.936;2023-02-26T14:13:21;8.70;49.20
74384;DHT22;62824;52.994;-3.936;2023-02-26T14:27:23;8.90;48.30
74384;DHT22;62824;52.994;-3.936;2023-02-26T14:35:33;9.10;56.20
74384;DHT22;62824;52.994;-3.936;2023-02-26T14:40:24;9.90;52.80
74384;DHT22;62824;52.994;-3.936;2023-02-26T14:42:51;9.70;49.80
74384;DHT22;62824;52.994;-3.936;2023-02-26T14:45:30;9.40;53.40
74384;DHT22;62824;52.994;-3.936;2023-02-26T14:48:00;9.00;56.20
74384;DHT22;62824;52.994;-3.936;2023-02-26T14:50:40;9.00;57.40
74384;DHT22;62824;52.994;-3.936;2023-02-26T15:07:58;8.70;60.00
74384;DHT22;62824;52.994;-3.936;2023-02-26T15:10:55;8.70;58.90
74384;DHT22;62824;52.994;-3.936;2023-02-26T15:13:42;8.30;64.60
74384;DHT22;62824;52.994;-3.936;2023-02-26T15:16:33;8.40;64.50
74384;DHT22;62824;52.994;-3.936;2023-02-26T15:22:21;8.50;67.50
74384;DHT22;62824;52.994;-3.936;2023-02-26T15:24:49;8.60;63.30
74384;DHT22;62824;52.994;-3.936;2023-02-26T15:27:17;8.80;65.10
74384;DHT22;62824;52.994;-3.936;2023-02-26T15:29:43;8.70;64.50
74384;DHT22;62824;52.994;-3.936;2023-02-26T15:32:21;8.30;67.60
74384;DHT22;62824;52.994;-3.936;2023-02-26T15:35:09;8.20;68.20
74384;DHT22;62824;52.994;-3.936;2023-02-26T15:37:38;7.90;69.80
74384;DHT22;62824;52.994;-3.936;2023-02-26T15:40:06;8.40;70.70
74384;DHT22;62824;52.994;-3.936;2023-02-26T15:42:34;9.00;65.50
74384;DHT22;62824;52.994;-3.936;2023-02-26T15:45:08;9.30;61.30
74384;DHT22;62824;52.994;-3.936;2023-02-26T15:47:36;9.70;55.90
74384;DHT22;62824;52.994;-3.936;2023-02-26T15:50:03;10.00;54.60
74384;DHT22;62824;52.994;-3.936;2023-02-26T15:52:29;10.00;54.80
74384;DHT22;62824;52.994;-3.936;2023-02-26T15:55:03;10.00;52.20
74384;DHT22;62824;52.994;-3.936;2023-02-26T15:57:30;9.70;52.70
74384;DHT22;62824;52.994;-3.936;2023-02-26T16:00:09;9.20;57.60
74384;DHT22;62824;52.994;-3.936;2023-02-26T16:02:35;9.00;59.10
74384;DHT22;62824;52.994;-3.936;2023-02-26T16:05:02;8.70;61.80
74384;DHT22;62824;52.994;-3.936;2023-02-26T16:07:29;8.70;61.50
74384;DHT22;62824;52.994;-3.936;2023-02-26T16:09:55;8.30;64.50
74384;DHT22;62824;52.994;-3.936;2023-02-26T16:12:41;8.40;63.80
74384;DHT22;62824;52.994;-3.936;2023-02-26T16:15:15;8.60;63.10
74384;DHT22;62824;52.994;-3.936;2023-02-26T16:20:56;8.80;62.90
74384;DHT22;62824;52.994;-3.936;2023-02-26T16:23:40;8.60;63.40
74384;DHT22;62824;52.994;-3.936;2023-02-26T16:26:14;8.70;63.40
74384;DHT22;62824;52.994;-3.936;2023-02-26T16:28:42;8.30;66.50
74384;DHT22;62824;52.994;-3.936;2023-02-26T16:31:25;8.30;65.80
74384;DHT22;62824;52.994;-3.936;2023-02-26T16:34:04;8.10;69.00
74384;DHT22;62824;52.994;-3.936;2023-02-26T16:36:37;7.90;72.90
74384;DHT22;62824;52.994;-3.936;2023-02-26T16:41:36;7.70;73.50
74384;DHT22;62824;52.994;-3.936;2023-02-26T16:44:09;7.70;78.00
74384;DHT22;62824;52.994;-3.936;2023-02-26T16:46:44;7.70;77.50
74384;DHT22;62824;52.994;-3.936;2023-02-26T16:51:41;7.80;80.60
74384;DHT22;62824;52.994;-3.936;2023-02-26T16:56:41;7.60;78.30
74384;DHT22;62824;52.994;-3.936;2023-02-26T16:59:22;7.40;79.50
74384;DHT22;62824;52.994;-3.936;2023-02-26T17:04:25;7.30;80.20
74384;DHT22;62824;52.994;-3.936;2023-02-26T17:06:53;7.30;81.40
74384;DHT22;62824;52.994;-3.936;2023-02-26T17:09:40;7.30;81.80
74384;DHT22;62824;52.994;-3.936;2023-02-26T17:12:16;7.00;84.40
74384;DHT22;62824;52.994;-3.936;2023-02-26T17:14:44;6.90;88.40
74384;DHT22;62824;52.994;-3.936;2023-02-26T17:17:10;7.00;88.60
74384;DHT22;62824;52.994;-3.936;2023-02-26T17:19:37;6.80;90.50
74384;DHT22;62824;52.994;-3.936;2023-02-26T17:22:03;6.80;91.10
74384;DHT22;62824;52.994;-3.936;2023-02-26T17:24:37;6.80;91.50
74384;DHT22;62824;52.994;-3.936;2023-02-26T17:27:07;7.00;91.60
74384;DHT22;62824;52.994;-3.936;2023-02-26T17:29:37;7.10;90.50
74384;DHT22;62824;52.994;-3.936;2023-02-26T17:32:04;7.10;89.50
74384;DHT22;62824;52.994;-3.936;2023-02-26T17:34:30;6.90;90.30
74384;DHT22;62824;52.994;-3.936;2023-02-26T17:36:56;6.90;91.50
74384;DHT22;62824;52.994;-3.936;2023-02-26T17:39:22;6.80;91.70
74384;DHT22;62824;52.994;-3.936;2023-02-26T17:41:47;6.80;92.00
74384;DHT22;62824;52.994;-3.936;2023-02-26T17:44:14;6.70;92.60
74384;DHT22;62824;52.994;-3.936;2023-02-26T17:46:39;6.80;92.50
74384;DHT22;62824;52.994;-3.936;2023-02-26T17:49:05;6.80;92.10
74384;DHT22;62824;52.994;-3.936;2023-02-26T17:51:31;6.60;92.90
74384;DHT22;62824;52.994;-3.936;2023-02-26T17:53:57;6.60;93.50
74384;DHT22;62824;52.994;-3.936;2023-02-26T17:56:28;6.60;93.40
74384;DHT22;62824;52.994;-3.936;2023-02-26T17:58:55;6.50;93.00
74384;DHT22;62824;52.994;-3.936;2023-02-26T18:01:22;6.50;93.70
74384;DHT22;62824;52.994;-3.936;2023-02-26T18:03:48;6.40;94.80
74384;DHT22;62824;52.994;-3.936;2023-02-26T18:06:15;6.20;94.90
74384;DHT22;62824;52.994;-3.936;2023-02-26T18:08:41;6.40;95.70
74384;DHT22;62824;52.994;-3.936;2023-02-26T18:11:09;6.30;95.70
74384;DHT22;62824;52.994;-3.936;2023-02-26T18:13:36;6.30;96.30
74384;DHT22;62824;52.994;-3.936;2023-02-26T18:16:03;6.20;96.60
74384;DHT22;62824;52.994;-3.936;2023-02-26T18:18:30;6.20;96.90
74384;DHT22;62824;52.994;-3.936;2023-02-26T18:20:56;6.20;97.50
74384;DHT22;62824;52.994;-3.936;2023-02-26T18:23:22;6.20;97.70
74384;DHT22;62824;52.994;-3.936;2023-02-26T18:25:51;6.20;98.00
74384;DHT22;62824;52.994;-3.936;2023-02-26T18:28:21;6.30;97.90
74384;DHT22;62824;52.994;-3.936;2023-02-26T18:30:48;6.40;97.40
74384;DHT22;62824;52.994;-3.936;2023-02-26T18:33:14;6.40;97.20
74384;DHT22;62824;52.994;-3.936;2023-02-26T18:35:52;6.50;97.00
74384;DHT22;62824;52.994;-3.936;2023-02-26T18:38:22;6.50;96.80
74384;DHT22;62824;52.994;-3.936;2023-02-26T18:40:48;6.50;96.50
74384;DHT22;62824;52.994;-3.936;2023-02-26T18:43:15;6.50;96.80
74384;DHT22;62824;52.994;-3.936;2023-02-26T18:45:42;6.40;97.00
74384;DHT22;62824;52.994;-3.936;2023-02-26T18:48:13;6.20;97.70
74384;DHT22;62824;52.994;-3.936;2023-02-26T18:50:44;6.20;98.10
74384;DHT22;62824;52.994;-3.936;2023-02-26T18:53:10;6.30;98.10
74384;DHT22;62824;52.994;-3.936;2023-02-26T18:55:36;6.30;98.10
74384;DHT22;62824;52.994;-3.936;2023-02-26T18:58:02;6.20;98.20
74384;DHT22;62824;52.994;-3.936;2023-02-26T19:00:29;6.00;98.70
74384;DHT22;62824;52.994;-3.936;2023-02-26T19:02:55;6.00;99.60
74384;DHT22;62824;52.994;-3.936;2023-02-26T19:05:21;6.00;99.50
74384;DHT22;62824;52.994;-3.936;2023-02-26T19:07:52;6.00;99.30
74384;DHT22;62824;52.994;-3.936;2023-02-26T19:10:19;6.00;99.20
74384;DHT22;62824;52.994;-3.936;2023-02-26T19:12:44;5.80;99.20